Time;durP1;ratioP1;P1;durP2;ratioP2;P2;SDS_P1;SDS_P2;PMS_P1;PMS_P2;Temp;Humidity;BMP_temperature;BMP_pressure;BME280_temperature;BME280_humidity;BME280_pressure;Samples;Min_cycle;Max_cycle;Signal;HPM_P1;HPM_P2
2021/12/25 00:01:40;;;;;;;12.40;10.20;;;;;;;4.96;98.19;100541.97;5037511;28;20040;-84
2021/12/25 00:04:07;;;;;;;15.30;10.23;;;;;;;4.91;98.16;100536.72;5032089;28;20049;-84
2021/12/25 00:06:34;;;;;;;11.65;9.48;;;;;;;4.93;98.28;100534.13;5015590;28;20132;-84
2021/12/25 00:08:59;;;;;;;12.43;9.73;;;;;;;4.90;98.08;100528.88;5015328;28;20045;-84
2021/12/25 00:11:25;;;;;;;11.65;9.50;;;;;;;4.89;97.77;100528.00;4999338;28;20028;-83
2021/12/25 00:13:51;;;;;;;12.70;10.18;;;;;;;4.88;97.86;100528.88;4998760;28;20049;-83
2021/12/25 00:16:16;;;;;;;12.48;10.25;;;;;;;4.89;98.16;100532.38;4999182;28;20397;-83
2021/12/25 00:18:42;;;;;;;12.20;9.48;;;;;;;4.85;98.30;100520.16;5015061;28;20069;-82
2021/12/25 00:21:08;;;;;;;12.77;9.98;;;;;;;4.83;98.22;100519.28;5031667;28;20050;-82
2021/12/25 00:23:34;;;;;;;12.98;10.02;;;;;;;4.82;98.25;100530.66;5015210;28;20505;-82
2021/12/25 00:26:05;;;;;;;12.77;9.90;;;;;;;4.84;98.41;100536.75;4982721;28;20038;-82
2021/12/25 00:33:59;;;;;;;13.27;9.93;;;;;;;4.81;98.45;100532.41;5056842;28;20506;-83
2021/12/25 00:36:27;;;;;;;13.25;10.43;;;;;;;4.75;98.46;100519.31;5039678;28;20042;-83
2021/12/25 00:38:55;;;;;;;12.73;10.43;;;;;;;4.79;98.31;100528.91;5025120;28;20039;-83
2021/12/25 00:41:23;;;;;;;15.13;10.57;;;;;;;4.77;98.47;100520.16;5032114;28;20037;-83
2021/12/25 00:43:50;;;;;;;13.52;10.95;;;;;;;4.79;98.32;100528.03;5017245;28;20021;-83
2021/12/25 00:46:16;;;;;;;12.70;9.38;;;;;;;4.76;97.86;100518.44;5030691;28;20033;-83
2021/12/25 00:48:41;;;;;;;14.90;10.00;;;;;;;4.74;98.41;100515.81;5026185;28;20264;-83
2021/12/25 00:51:07;;;;;;;12.10;9.07;;;;;;;4.73;97.72;100516.69;5039889;28;20021;-83
2021/12/25 00:53:33;;;;;;;12.05;8.63;;;;;;;4.72;97.71;100519.31;5025894;28;20071;-83
2021/12/25 00:55:58;;;;;;;11.00;8.57;;;;;;;4.70;97.81;100528.97;5026181;28;20056;-83
2021/12/25 00:58:24;;;;;;;10.38;8.27;;;;;;;4.70;97.79;100528.97;5039879;28;20021;-83
2021/12/25 01:00:51;;;;;;;11.63;8.55;;;;;;;4.68;98.01;100526.31;5017204;28;20387;-83
2021/12/25 01:03:17;;;;;;;11.57;9.15;;;;;;;4.67;97.76;100521.06;5014099;28;20074;-84
2021/12/25 01:05:43;;;;;;;11.05;8.60;;;;;;;4.64;97.73;100527.19;5025828;28;20032;-84
2021/12/25 01:08:10;;;;;;;12.38;9.48;;;;;;;4.60;97.74;100530.72;5022769;28;20041;-84
2021/12/25 01:10:36;;;;;;;13.27;8.85;;;;;;;4.58;97.95;100531.59;5040409;28;20731;-83
2021/12/25 01:15:47;;;;;;;12.07;9.23;;;;;;;4.53;97.50;100535.09;5027950;28;20041;-84
2021/12/25 01:30:05;;;;;;;12.45;10.13;;;;;;;4.54;97.87;100530.72;5047721;28;19923;-84
2021/12/25 01:47:46;;;;;;;19.27;12.98;;;;;;;4.50;98.53;100532.50;5026318;28;20037;-84
2021/12/25 01:49:56;;;;;;;18.42;13.57;;;;;;;4.49;98.79;100535.97;5037998;28;20029;-85
2021/12/25 01:52:29;;;;;;;19.20;13.32;;;;;;;4.48;98.84;100528.13;5031044;28;20040;-84
2021/12/25 01:55:00;;;;;;;18.52;13.65;;;;;;;4.49;98.68;100528.09;5024670;28;20033;-85
2021/12/25 01:57:28;;;;;;;19.92;14.77;;;;;;;4.50;98.75;100528.97;5022141;28;20037;-85
2021/12/25 01:59:53;;;;;;;19.85;14.10;;;;;;;4.49;98.19;100527.25;5014461;28;20028;-85
2021/12/25 02:02:19;;;;;;;19.33;14.52;;;;;;;4.48;98.80;100529.00;5015444;28;20381;-84
2021/12/25 02:04:45;;;;;;;20.27;15.23;;;;;;;4.47;98.42;100523.75;5032443;28;20618;-84
2021/12/25 02:07:11;;;;;;;21.25;14.52;;;;;;;4.46;98.28;100516.75;5024891;28;20087;-85
2021/12/25 02:09:36;;;;;;;19.27;14.43;;;;;;;4.42;98.42;100515.00;5023078;28;20040;-85
2021/12/25 02:12:02;;;;;;;18.35;14.13;;;;;;;4.42;98.30;100515.00;5039725;28;20021;-85
2021/12/25 02:14:29;;;;;;;17.95;11.70;;;;;;;4.34;98.42;100501.06;5024652;28;20389;-85
2021/12/25 02:17:02;;;;;;;17.90;13.65;;;;;;;4.42;98.32;100517.63;5013191;28;20033;-84
2021/12/25 02:19:43;;;;;;;17.50;13.13;;;;;;;4.37;98.33;100514.16;5028164;28;20473;-85
2021/12/25 02:22:09;;;;;;;19.48;13.55;;;;;;;4.35;97.69;100518.53;5012981;28;20456;-84
2021/12/25 02:24:36;;;;;;;18.40;13.32;;;;;;;4.30;97.89;100516.81;5029303;28;20067;-85
2021/12/25 02:27:04;;;;;;;18.13;13.05;;;;;;;4.31;97.60;100529.03;5029387;28;20045;-85
2021/12/25 02:29:30;;;;;;;15.65;12.32;;;;;;;4.28;97.64;100536.91;5029727;28;20100;-85
2021/12/25 02:31:57;;;;;;;16.15;11.30;;;;;;;4.19;97.39;100529.03;4996691;28;20060;-85
2021/12/25 02:34:23;;;;;;;16.95;11.20;;;;;;;4.14;97.50;100533.41;5012500;28;20456;-85
2021/12/25 02:36:49;;;;;;;15.02;11.85;;;;;;;4.09;97.59;100525.53;4996159;28;20094;-85
2021/12/25 02:39:15;;;;;;;14.32;10.90;;;;;;;4.06;97.42;100528.16;4996500;28;20136;-85
2021/12/25 02:41:41;;;;;;;12.32;9.45;;;;;;;4.02;96.16;100523.78;5013797;28;20061;-84
2021/12/25 02:44:07;;;;;;;12.18;9.02;;;;;;;3.94;96.70;100524.69;5033173;28;20115;-84
2021/12/25 02:46:39;;;;;;;15.65;10.15;;;;;;;3.91;96.70;100535.13;5037353;28;20033;-83
2021/12/25 02:49:12;;;;;;;12.57;9.30;;;;;;;3.86;96.67;100530.78;5036664;28;20407;-84
2021/12/25 02:51:41;;;;;;;13.73;9.75;;;;;;;3.80;96.17;100541.25;5020689;28;20069;-84
2021/12/25 02:54:07;;;;;;;13.02;9.65;;;;;;;3.77;96.24;100540.38;5052699;28;20032;-84
2021/12/25 02:56:33;;;;;;;15.85;10.60;;;;;;;3.76;95.66;100541.25;5036385;28;20136;-84
2021/12/25 02:58:59;;;;;;;15.48;10.85;;;;;;;3.67;95.83;100542.97;5036187;28;20025;-85
2021/12/25 03:01:25;;;;;;;16.50;11.70;;;;;;;3.60;95.79;100541.22;5020180;28;20131;-84
2021/12/25 03:03:51;;;;;;;16.00;10.55;;;;;;;3.55;96.01;100537.72;5019754;28;20452;-84
2021/12/25 03:06:17;;;;;;;15.07;10.45;;;;;;;3.52;95.96;100537.72;5036283;28;20048;-84
2021/12/25 03:08:43;;;;;;;18.65;12.65;;;;;;;3.50;96.29;100546.44;5036105;28;20021;-84
2021/12/25 03:11:13;;;;;;;17.88;10.68;;;;;;;3.43;95.54;100538.56;5036237;28;20039;-84
2021/12/25 03:13:45;;;;;;;17.73;10.40;;;;;;;3.41;95.68;100548.19;5035973;28;20044;-84
2021/12/25 03:16:14;;;;;;;15.02;10.27;;;;;;;3.39;95.89;100551.66;5021033;28;20040;-84
2021/12/25 03:18:49;;;;;;;16.88;12.07;;;;;;;3.37;95.95;100550.78;5003261;28;20029;-84
2021/12/25 03:21:18;;;;;;;15.90;11.18;;;;;;;3.33;95.83;100547.25;5035853;28;20456;-83
2021/12/25 03:23:46;;;;;;;14.95;11.23;;;;;;;3.32;95.49;100555.13;5054094;28;20154;-83
2021/12/25 03:26:12;;;;;;;17.15;12.18;;;;;;;3.25;95.62;100562.06;5052594;28;20060;-84
2021/12/25 03:28:42;;;;;;;17.92;11.93;;;;;;;3.21;95.75;100570.78;5035863;28;20025;-82
2021/12/25 03:31:15;;;;;;;15.60;11.07;;;;;;;3.20;96.03;100574.28;5036209;28;20041;-82
2021/12/25 03:33:43;;;;;;;17.70;11.82;;;;;;;3.14;95.50;100571.63;5034566;28;20440;-82
2021/12/25 03:36:09;;;;;;;17.98;11.98;;;;;;;3.10;96.12;100567.25;5031845;28;20493;-83
2021/12/25 03:38:35;;;;;;;15.20;12.13;;;;;;;3.07;95.79;100570.75;5032215;28;20065;-82
2021/12/25 03:41:00;;;;;;;18.02;12.45;;;;;;;3.05;96.18;100577.69;4999627;28;20191;-82
2021/12/25 03:43:27;;;;;;;16.65;12.38;;;;;;;3.04;96.05;100586.41;5023047;28;20465;-83
2021/12/25 03:45:54;;;;;;;16.85;12.75;;;;;;;3.00;95.54;100580.28;5032318;28;20116;-83
2021/12/25 03:57:36;;;;;;;16.45;12.02;;;;;;;2.85;94.90;100585.44;5031387;28;20037;-83
2021/12/25 03:59:10;;;;;;;18.23;12.57;;;;;;;2.77;94.89;100590.63;5018310;28;20434;-82
2021/12/25 04:04:12;;;;;;;18.20;13.52;;;;;;;2.71;95.67;100587.97;5031847;28;20124;-82
2021/12/25 04:06:53;;;;;;;17.38;13.75;;;;;;;2.72;95.62;100591.44;5017047;28;20041;-82
2021/12/25 04:09:29;;;;;;;19.70;13.93;;;;;;;2.69;95.29;100604.50;5015318;28;20025;-82
2021/12/25 04:11:59;;;;;;;21.23;14.85;;;;;;;2.60;94.92;100600.13;5016849;28;20137;-81
2021/12/25 04:14:24;;;;;;;18.63;14.32;;;;;;;2.55;95.25;100602.69;5019399;28;20125;-81
2021/12/25 04:16:51;;;;;;;21.40;15.02;;;;;;;2.55;94.66;100609.66;5031578;28;20029;-81
2021/12/25 04:19:17;;;;;;;19.58;14.27;;;;;;;2.51;95.33;100611.38;5031387;28;20041;-81
2021/12/25 04:21:52;;;;;;;20.25;14.77;;;;;;;2.45;95.70;100606.09;5015289;28;20124;-81
2021/12/25 04:24:18;;;;;;;20.83;15.25;;;;;;;2.47;95.28;100619.16;5016167;28;20055;-81
2021/12/25 04:26:45;;;;;;;20.85;15.65;;;;;;;2.44;95.61;100619.16;5031417;28;20041;-81
2021/12/25 04:48:39;;;;;;;19.70;14.15;;;;;;;2.17;94.52;100631.13;5047546;28;20200;-81
2021/12/25 05:04:29;;;;;;;23.15;14.43;;;;;;;2.04;94.54;100652.78;5030473;28;20037;-81
2021/12/25 05:07:02;;;;;;;19.67;14.55;;;;;;;2.01;93.81;100658.84;5032124;28;20139;-81
2021/12/25 05:09:28;;;;;;;20.13;14.10;;;;;;;1.91;94.52;100657.00;5030564;28;20049;-81
2021/12/25 05:11:54;;;;;;;19.83;15.57;;;;;;;1.82;94.01;100651.69;5014157;28;20043;-81
2021/12/25 05:14:20;;;;;;;19.35;14.35;;;;;;;1.82;94.38;100662.13;5034455;28;20037;-81
2021/12/25 05:16:45;;;;;;;18.08;13.85;;;;;;;1.78;94.60;100666.44;5030628;28;20021;-80
2021/12/25 05:19:11;;;;;;;19.60;14.30;;;;;;;1.77;95.05;100658.59;4997724;28;20646;-81
2021/12/25 05:21:37;;;;;;;19.65;13.90;;;;;;;1.72;94.91;100659.41;5031949;28;20037;-81
2021/12/25 05:24:05;;;;;;;19.70;14.75;;;;;;;1.71;94.90;100665.50;5030209;28;20116;-81
2021/12/25 05:26:35;;;;;;;18.02;13.57;;;;;;;1.67;94.78;100657.59;5014578;28;20035;-81
2021/12/25 05:29:02;;;;;;;25.52;13.98;;;;;;;1.70;95.10;100665.47;5013700;28;20128;-81
2021/12/25 05:31:34;;;;;;;20.17;14.90;;;;;;;1.66;94.61;100671.53;5036623;28;20029;-81
2021/12/25 05:34:08;;;;;;;20.08;14.05;;;;;;;1.63;95.05;100668.84;5050004;28;20071;-80
2021/12/25 05:37:06;;;;;;;18.80;13.93;;;;;;;1.62;94.91;100682.78;5026617;28;20049;-80
2021/12/25 05:39:52;;;;;;;19.40;14.73;;;;;;;1.60;94.48;100676.66;5049782;28;20046;-81
2021/12/25 05:42:23;;;;;;;18.02;13.35;;;;;;;1.56;95.18;100685.28;5000533;28;20036;-80
2021/12/25 05:44:51;;;;;;;20.35;13.68;;;;;;;1.53;94.96;100683.53;5013702;28;20038;-80
2021/12/25 05:47:32;;;;;;;18.80;13.65;;;;;;;1.48;94.15;100686.09;5029952;28;20033;-80
2021/12/25 05:50:36;;;;;;;17.77;12.80;;;;;;;1.48;93.84;100686.09;5030533;28;20041;-81
2021/12/25 05:53:21;;;;;;;18.17;13.95;;;;;;;1.39;94.46;100688.59;5002533;28;20041;-80
2021/12/25 05:56:05;;;;;;;18.33;13.52;;;;;;;1.37;95.18;100687.69;5031366;28;20057;-80
2021/12/25 05:58:53;;;;;;;17.83;13.68;;;;;;;1.35;95.18;100685.91;5034966;28;20049;-80
2021/12/25 06:01:32;;;;;;;22.65;13.63;;;;;;;1.37;94.55;100692.91;5000508;28;20484;-80
2021/12/25 06:03:58;;;;;;;18.73;14.10;;;;;;;1.37;95.04;100697.25;5029550;28;20039;-80
2021/12/25 06:06:25;;;;;;;21.75;15.25;;;;;;;1.37;94.51;100698.13;5013306;28;20111;-80
2021/12/25 06:08:52;;;;;;;19.58;14.73;;;;;;;1.36;94.88;100698.09;5029477;28;20575;-80
2021/12/25 06:11:18;;;;;;;21.08;14.35;;;;;;;1.33;94.40;100714.59;5029647;28;20433;-80
2021/12/25 06:13:55;;;;;;;21.30;14.90;;;;;;;1.28;94.66;100708.44;5029418;28;20037;-80
2021/12/25 06:16:22;;;;;;;22.15;15.20;;;;;;;1.27;95.12;100710.16;5029207;28;20099;-80
2021/12/25 06:19:10;;;;;;;22.17;15.07;;;;;;;1.26;94.92;100707.53;5026846;28;20132;-80
2021/12/25 06:21:53;;;;;;;23.48;15.02;;;;;;;1.24;94.80;100706.66;5015392;28;20033;-81
2021/12/25 06:24:40;;;;;;;21.83;14.10;;;;;;;1.21;94.98;100715.31;5029609;28;20103;-80
2021/12/25 06:27:14;;;;;;;22.33;14.55;;;;;;;1.18;94.76;100712.63;5014187;28;20037;-80
2021/12/25 06:29:58;;;;;;;21.10;14.65;;;;;;;1.16;94.61;100713.47;5029844;28;20045;-80
2021/12/25 06:32:42;;;;;;;18.95;13.43;;;;;;;1.14;95.19;100720.38;5029620;28;20115;-80
2021/12/25 06:35:37;;;;;;;24.60;13.95;;;;;;;1.11;94.52;100723.84;5045751;28;20135;-80
2021/12/25 06:38:28;;;;;;;23.98;13.95;;;;;;;1.08;95.12;100715.97;5036844;28;20120;-81
2021/12/25 06:41:10;;;;;;;20.08;13.50;;;;;;;1.10;94.67;100726.44;5029304;28;20041;-81
2021/12/25 06:43:37;;;;;;;23.23;15.05;;;;;;;1.06;94.66;100715.06;5021010;28;20401;-80
2021/12/25 06:46:03;;;;;;;21.25;13.57;;;;;;;1.04;94.42;100720.28;5029489;28;20041;-80
2021/12/25 06:48:30;;;;;;;17.42;12.30;;;;;;;1.04;94.87;100720.28;5012357;28;20132;-80
2021/12/25 06:51:11;;;;;;;16.20;12.10;;;;;;;1.04;94.91;100725.50;5029098;28;20048;-80
2021/12/25 06:53:55;;;;;;;18.73;12.25;;;;;;;0.98;94.37;100727.13;5029432;28;20514;-87
2021/12/25 06:57:01;;;;;;;16.52;11.35;;;;;;;0.97;94.74;100730.59;4989464;28;20046;-87
2021/12/25 06:59:28;;;;;;;19.17;11.02;;;;;;;0.93;94.56;100734.88;4989602;28;20042;-87
2021/12/25 07:01:54;;;;;;;19.80;11.82;;;;;;;0.85;94.46;100729.53;4999744;28;20337;-88
2021/12/25 07:04:38;;;;;;;14.38;10.48;;;;;;;0.88;93.93;100749.56;5031435;28;20521;-87
2021/12/25 07:07:26;;;;;;;13.65;10.32;;;;;;;0.84;94.18;100743.44;5002850;28;20165;-87
2021/12/25 07:10:13;;;;;;;15.25;10.40;;;;;;;0.80;93.76;100743.34;5015979;28;20448;-87
2021/12/25 07:12:50;;;;;;;12.48;8.88;;;;;;;0.74;94.05;100748.44;5029668;28;20041;-88
2021/12/25 07:15:32;;;;;;;14.40;10.15;;;;;;;0.74;94.09;100749.34;5035330;28;20499;-88
2021/12/25 07:18:24;;;;;;;15.63;9.52;;;;;;;0.72;94.10;100768.41;5049699;28;20061;-89
2021/12/25 07:21:08;;;;;;;15.40;10.05;;;;;;;0.69;94.01;100764.00;5049848;28;20044;-87
2021/12/25 07:23:53;;;;;;;16.05;8.93;;;;;;;0.66;94.37;100774.38;5035754;28;20040;-88
2021/12/25 07:26:29;;;;;;;13.60;8.25;;;;;;;0.63;93.84;100782.16;5018981;28;20037;-88
2021/12/25 07:29:15;;;;;;;13.25;8.13;;;;;;;0.62;93.95;100788.25;5051989;28;20044;-88
2021/12/25 07:31:41;;;;;;;10.23;6.80;;;;;;;0.61;93.49;100781.25;5035885;28;20357;-88
2021/12/25 07:34:06;;;;;;;10.45;6.93;;;;;;;0.53;93.19;100783.72;5052922;28;20029;-88
2021/12/25 07:36:32;;;;;;;8.88;6.00;;;;;;;0.49;92.76;100786.25;5036402;28;20457;-88
2021/12/25 07:38:57;;;;;;;8.13;6.25;;;;;;;0.45;92.83;100789.66;5019483;28;20048;-90
2021/12/25 07:41:23;;;;;;;9.27;5.95;;;;;;;0.41;93.09;100794.78;5035847;28;20045;-88
2021/12/25 07:43:49;;;;;;;6.60;4.82;;;;;;;0.36;92.45;100793.81;5029910;28;20112;-88
2021/12/25 07:46:22;;;;;;;6.88;4.85;;;;;;;0.30;92.17;100791.13;5001771;28;20502;-87
2021/12/25 07:48:48;;;;;;;10.07;5.78;;;;;;;0.27;92.62;100797.97;4998900;28;20076;-88
2021/12/25 07:51:14;;;;;;;8.77;5.97;;;;;;;0.20;92.08;100792.66;4999144;28;20109;-88
2021/12/25 07:53:43;;;;;;;10.98;5.90;;;;;;;0.18;92.43;100794.38;5014863;28;20037;-88
2021/12/25 07:56:09;;;;;;;12.73;5.82;;;;;;;0.13;91.96;100806.41;5015295;28;20478;-85
2021/12/25 07:58:35;;;;;;;8.23;6.03;;;;;;;0.04;92.15;100801.00;5016060;28;20030;-89
2021/12/25 08:01:00;;;;;;;8.00;6.10;;;;;;;-0.01;92.04;100800.91;5032718;28;20055;-89
2021/12/25 08:03:26;;;;;;;7.63;5.78;;;;;;;-0.01;91.66;100810.47;5015284;28;20374;-89
2021/12/25 08:05:52;;;;;;;13.05;6.18;;;;;;;-0.01;91.75;100813.94;5033015;28;20527;-89
2021/12/25 08:08:17;;;;;;;9.65;6.45;;;;;;;-0.06;91.65;100818.16;5031434;28;20080;-89
2021/12/25 08:10:44;;;;;;;9.48;5.82;;;;;;;-0.07;91.71;100819.03;5047786;28;20065;-89
2021/12/25 08:13:09;;;;;;;12.70;6.13;;;;;;;-0.09;91.91;100825.91;5014831;28;20029;-89
2021/12/25 08:15:35;;;;;;;7.90;6.25;;;;;;;-0.10;92.21;100823.28;5028854;28;20118;-89
2021/12/25 08:18:01;;;;;;;9.35;6.47;;;;;;;-0.15;92.60;100819.69;5014900;28;20037;-90
2021/12/25 08:20:33;;;;;;;9.68;6.38;;;;;;;-0.10;92.35;100826.78;5048020;28;20104;-89
2021/12/25 08:23:32;;;;;;;13.20;7.22;;;;;;;-0.11;92.33;100827.59;5053869;28;20043;-90
2021/12/25 08:26:16;;;;;;;7.85;5.88;;;;;;;-0.19;91.75;100810.97;5046104;28;20044;-90
2021/12/25 08:28:44;;;;;;;11.43;6.20;;;;;;;-0.14;92.52;100832.75;5031361;28;20048;-87
2021/12/25 08:31:28;;;;;;;9.82;6.82;;;;;;;-0.18;91.80;100833.53;5046494;28;20048;-89
2021/12/25 08:34:23;;;;;;;11.80;7.32;;;;;;;-0.17;92.14;100840.50;5018369;28;20058;-89
2021/12/25 08:37:00;;;;;;;10.07;6.22;;;;;;;-0.20;91.92;100837.81;5045829;28;20049;-88
2021/12/25 08:39:26;;;;;;;9.77;6.68;;;;;;;-0.20;91.81;100845.63;5014563;28;20041;-90
2021/12/25 08:42:00;;;;;;;11.02;6.88;;;;;;;-0.22;91.93;100845.59;5014933;28;20101;-90
2021/12/25 08:44:37;;;;;;;8.88;6.38;;;;;;;-0.26;91.41;100848.97;5047434;28;20021;-91
2021/12/25 08:47:07;;;;;;;10.38;6.10;;;;;;;-0.27;91.24;100851.56;5033416;28;20029;-91
2021/12/25 08:49:34;;;;;;;9.02;6.95;;;;;;;-0.26;91.42;100855.91;5032138;28;20425;-90
2021/12/25 08:52:09;;;;;;;7.57;6.15;;;;;;;-0.25;90.96;100868.97;5031753;28;20037;-90
2021/12/25 08:54:36;;;;;;;8.05;6.35;;;;;;;-0.30;91.45;100859.28;5031697;28;20499;-90
2021/12/25 08:57:03;;;;;;;8.57;6.85;;;;;;;-0.36;91.35;100854.81;5031644;28;20025;-90
2021/12/25 08:59:28;;;;;;;10.38;7.05;;;;;;;-0.40;91.42;100852.97;5033843;28;20045;-91
2021/12/25 09:01:55;;;;;;;6.82;5.65;;;;;;;-0.40;90.95;100859.91;5035124;28;20029;-90
2021/12/25 09:04:21;;;;;;;10.18;6.60;;;;;;;-0.35;90.71;100881.72;5015264;28;20123;-90
2021/12/25 09:06:47;;;;;;;7.97;6.65;;;;;;;-0.37;91.06;100875.59;5019206;28;20704;-89
2021/12/25 09:09:12;;;;;;;6.68;5.10;;;;;;;-0.38;90.38;100879.06;5031174;28;20085;-91
2021/12/25 09:11:39;;;;;;;8.20;6.60;;;;;;;-0.41;90.86;100886.78;5015082;28;20026;-90
2021/12/25 09:14:05;;;;;;;9.15;6.63;;;;;;;-0.43;90.98;100885.00;5020924;28;20040;-91
2021/12/25 09:16:31;;;;;;;10.50;5.57;;;;;;;-0.45;90.40;100889.28;5034651;28;20031;-89
2021/12/25 09:18:57;;;;;;;9.52;6.25;;;;;;;-0.50;90.03;100893.50;5017355;28;20049;-90
2021/12/25 09:21:23;;;;;;;10.60;5.85;;;;;;;-0.48;90.57;100890.97;5030862;28;20029;-86
2021/12/25 09:23:48;;;;;;;7.28;5.40;;;;;;;-0.58;90.62;100886.38;5049464;28;20063;-90
2021/12/25 09:26:14;;;;;;;7.20;5.70;;;;;;;-0.53;91.05;100884.78;5033467;28;20021;-91
2021/12/25 09:28:40;;;;;;;7.18;5.85;;;;;;;-0.43;89.40;100884.16;5035481;28;20071;-90
2021/12/25 09:31:06;;;;;;;7.15;5.65;;;;;;;-0.60;90.06;100888.06;5034731;28;20360;-93
2021/12/25 09:33:32;;;;;;;9.95;6.50;;;;;;;-0.57;90.44;100895.94;5033263;28;20033;-91
2021/12/25 09:36:02;;;;;;;9.57;5.95;;;;;;;-0.55;89.83;100892.53;5017170;28;20054;-91
2021/12/25 09:38:30;;;;;;;10.00;6.10;;;;;;;-0.60;90.81;100890.66;4982328;28;20053;-90
2021/12/25 09:40:57;;;;;;;9.35;6.28;;;;;;;-0.59;90.26;100884.59;5014005;28;20120;-88
2021/12/25 09:43:23;;;;;;;9.57;6.57;;;;;;;-0.60;90.24;100890.66;4997281;28;20048;-91
2021/12/25 09:45:49;;;;;;;8.43;5.72;;;;;;;-0.69;89.85;100881.81;5020899;28;20582;-90
2021/12/25 09:48:15;;;;;;;9.40;6.10;;;;;;;-0.67;89.85;100892.22;5044366;28;20017;-89
2021/12/25 09:50:40;;;;;;;14.68;6.15;;;;;;;-0.68;90.22;100891.34;5029143;28;20037;-89
2021/12/25 09:53:07;;;;;;;9.98;6.60;;;;;;;-0.66;90.04;100892.28;5028055;28;20017;-87
2021/12/25 09:55:33;;;;;;;7.78;6.28;;;;;;;-0.73;90.45;100882.56;5043498;28;20443;-88
2021/12/25 09:57:59;;;;;;;8.23;6.47;;;;;;;-0.68;90.26;100888.75;5033529;28;20025;-87
2021/12/25 10:00:24;;;;;;;10.95;6.25;;;;;;;-0.69;90.41;100892.22;5042632;28;20068;-89
2021/12/25 10:02:54;;;;;;;9.85;5.80;;;;;;;-0.65;90.01;100898.34;5028251;28;20096;-90
2021/12/25 10:05:28;;;;;;;11.00;6.32;;;;;;;-0.67;89.96;100894.81;5027275;28;20025;-89
2021/12/25 10:08:12;;;;;;;8.30;6.25;;;;;;;-0.65;89.91;100899.22;5027206;28;20036;-88
2021/12/25 10:10:44;;;;;;;14.80;6.32;;;;;;;-0.62;89.84;100918.34;5027432;28;20127;-86
2021/12/25 10:13:31;;;;;;;6.38;4.68;;;;;;;-0.61;89.61;100928.81;5033356;28;20399;-90
2021/12/25 10:16:01;;;;;;;8.82;6.43;;;;;;;-0.72;89.27;100925.94;5025806;28;20094;-87
2021/12/25 10:18:33;;;;;;;8.38;6.03;;;;;;;-0.74;89.69;100924.13;5027325;28;20028;-88
2021/12/25 10:21:20;;;;;;;7.93;5.95;;;;;;;-0.74;89.59;100918.91;5042611;28;20079;-89
2021/12/25 10:24:02;;;;;;;7.70;5.53;;;;;;;-0.77;89.33;100917.13;5043892;28;20431;-90
2021/12/25 10:26:28;;;;;;;6.60;5.63;;;;;;;-0.79;89.93;100918.84;5044065;28;20029;-90
2021/12/25 10:28:54;;;;;;;10.15;6.18;;;;;;;-0.76;89.64;100923.22;5009160;28;20106;-89
2021/12/25 10:31:30;;;;;;;8.68;5.90;;;;;;;-0.72;89.86;100919.84;5029367;28;20037;-90
2021/12/25 10:33:56;;;;;;;10.88;6.43;;;;;;;-0.71;89.72;100916.41;5024969;28;20044;-89
2021/12/25 10:36:35;;;;;;;7.93;5.70;;;;;;;-0.66;89.34;100922.63;5011745;28;20036;-90
2021/12/25 10:39:17;;;;;;;7.38;5.57;;;;;;;-0.68;89.69;100919.97;5030751;28;20048;-89
2021/12/25 10:42:09;;;;;;;6.78;4.63;;;;;;;-0.57;89.37;100924.53;5030789;28;20381;-88
2021/12/25 10:44:37;;;;;;;8.70;4.85;;;;;;;-0.60;88.83;100922.75;5043284;28;20380;-91
2021/12/25 10:47:16;;;;;;;7.07;3.92;;;;;;;-0.61;88.98;100920.13;5042900;28;20116;-88
2021/12/25 10:50:11;;;;;;;6.90;3.83;;;;;;;-0.56;88.39;100918.53;5040930;28;20033;-89
2021/12/25 10:52:42;;;;;;;6.40;4.72;;;;;;;-0.62;88.58;100911.41;5026921;28;20108;-89
2021/12/25 10:55:20;;;;;;;9.43;5.50;;;;;;;-0.63;88.88;100911.41;5043939;28;20516;-88
2021/12/25 10:57:55;;;;;;;10.13;4.25;;;;;;;-0.54;88.22;100915.13;5042571;28;20033;-88
2021/12/25 11:00:21;;;;;;;10.20;5.88;;;;;;;-0.53;88.03;100923.78;5031079;28;20530;-87
2021/12/25 11:02:52;;;;;;;9.30;5.25;;;;;;;-0.56;87.93;100918.53;5044706;28;20025;-89
2021/12/25 11:05:24;;;;;;;6.88;4.43;;;;;;;-0.56;88.26;100914.19;5045803;28;20036;-87
2021/12/25 11:08:16;;;;;;;10.98;5.40;;;;;;;-0.44;88.40;100921.41;5047479;28;20044;-85
2021/12/25 11:10:51;;;;;;;8.43;5.10;;;;;;;-0.44;88.57;100919.69;5046657;28;20033;-90
2021/12/25 11:13:33;;;;;;;6.28;4.20;;;;;;;-0.34;88.38;100914.72;5029302;28;20028;-90
2021/12/25 11:16:07;;;;;;;10.30;4.28;;;;;;;-0.27;88.38;100914.03;5049205;28;20028;-90
2021/12/25 11:19:09;;;;;;;5.90;4.40;;;;;;;-0.22;88.66;100907.19;5033858;28;20105;-90
2021/12/25 11:21:57;;;;;;;6.70;4.35;;;;;;;-0.03;89.51;100911.06;5016592;28;20127;-87
2021/12/25 11:24:25;;;;;;;6.30;4.00;;;;;;;0.04;88.02;100912.09;5033311;28;20041;-87
2021/12/25 11:26:55;;;;;;;5.00;3.55;;;;;;;0.07;87.32;100910.44;5016493;28;20037;-91
2021/12/25 11:29:23;;;;;;;5.65;3.33;;;;;;;0.09;87.03;100908.75;5033580;28;20040;-90
2021/12/25 11:31:51;;;;;;;4.63;3.42;;;;;;;0.21;86.71;100921.16;5033474;28;20072;-91
2021/12/25 11:34:18;;;;;;;6.38;3.60;;;;;;;0.17;86.27;100907.22;5033445;28;20166;-92
2021/12/25 11:36:48;;;;;;;4.35;3.05;;;;;;;0.19;85.43;100904.63;5016464;28;20037;-89
2021/12/25 11:39:15;;;;;;;7.72;3.15;;;;;;;0.15;84.11;100897.59;5048817;28;20029;-88
2021/12/25 11:41:43;;;;;;;6.72;3.63;;;;;;;0.25;87.58;100902.16;5030866;28;20041;-87
2021/12/25 11:44:29;;;;;;;6.30;3.80;;;;;;;0.51;89.56;100904.41;5035904;28;20047;-90
2021/12/25 11:46:55;;;;;;;5.10;3.00;;;;;;;0.66;87.39;100891.66;5036675;28;20025;-87
2021/12/25 11:49:24;;;;;;;4.97;3.20;;;;;;;0.81;86.61;100889.34;5037770;28;20039;-89
2021/12/25 11:51:51;;;;;;;6.78;3.67;;;;;;;1.04;90.05;100883.69;5025451;28;20044;-91
2021/12/25 11:55:20;;;;;;;5.47;3.33;;;;;;;1.22;86.44;100893.56;5033687;28;20462;-91
2021/12/25 11:59:49;;;;;;;6.60;3.10;;;;;;;1.49;87.18;100877.47;5052712;28;20075;-85
2021/12/25 12:02:38;;;;;;;3.05;2.50;;;;;;;1.67;85.64;100879.50;5052618;28;20040;-90
2021/12/25 12:05:28;;;;;;;3.95;2.47;;;;;;;1.73;85.99;100876.94;5052464;28;20104;-89
2021/12/25 12:08:15;;;;;;;6.07;3.00;;;;;;;1.81;84.34;100872.75;5032364;28;20042;-91
2021/12/25 12:11:28;;;;;;;7.72;2.50;;;;;;;1.81;82.45;100875.34;5032699;28;20037;-89
2021/12/25 12:14:15;;;;;;;3.95;2.70;;;;;;;1.85;80.33;100898.03;5032339;28;20103;-92
2021/12/25 12:17:06;;;;;;;5.95;3.22;;;;;;;1.70;81.27;100879.53;5032281;28;20069;-87
2021/12/25 12:19:45;;;;;;;5.40;2.10;;;;;;;1.65;81.04;100883.81;5017353;28;20040;-91
2021/12/25 12:27:34;;;;;;;3.38;2.35;;;;;;;1.46;80.60;100885.28;5032713;28;20049;-91
2021/12/25 12:30:00;;;;;;;4.82;2.40;;;;;;;1.45;78.79;100873.06;5016284;28;20103;-91
2021/12/25 12:32:45;;;;;;;4.45;2.40;;;;;;;1.40;79.49;100866.88;5032495;28;20047;-90
2021/12/25 12:35:36;;;;;;;4.32;2.38;;;;;;;1.41;79.82;100871.25;5032170;28;20037;-90
2021/12/25 12:38:23;;;;;;;5.32;2.20;;;;;;;1.41;79.94;100868.63;5024512;28;20045;-88
2021/12/25 12:41:11;;;;;;;4.32;1.98;;;;;;;1.46;79.97;100869.63;5035248;28;20034;-90
2021/12/25 12:43:54;;;;;;;4.72;2.50;;;;;;;1.37;80.49;100867.72;5051933;28;20456;-90
2021/12/25 12:46:20;;;;;;;4.25;2.35;;;;;;;1.32;78.27;100845.91;5031444;28;20030;-90
2021/12/25 12:49:06;;;;;;;4.15;2.35;;;;;;;1.35;79.75;100851.16;5015374;28;20032;-90
2021/12/25 12:51:33;;;;;;;5.72;2.67;;;;;;;1.41;78.61;100863.41;5015655;28;20095;-90
2021/12/25 12:53:59;;;;;;;3.20;2.33;;;;;;;1.40;77.44;100859.94;5015517;28;20074;-89
2021/12/25 12:56:25;;;;;;;5.93;2.25;;;;;;;1.32;77.15;100856.34;5034547;28;20127;-90
2021/12/25 12:58:52;;;;;;;4.68;2.10;;;;;;;1.23;76.52;100859.66;5035943;28;20020;-90
2021/12/25 13:01:19;;;;;;;8.05;2.20;;;;;;;1.17;77.90;100853.47;5041152;28;20075;-91
2021/12/25 13:03:45;;;;;;;6.20;2.40;;;;;;;1.16;76.32;100851.72;5048780;28;20043;-90
2021/12/25 13:06:13;;;;;;;2.33;1.90;;;;;;;1.12;75.89;100847.31;5019701;28;20028;-90
2021/12/25 13:08:41;;;;;;;3.00;2.00;;;;;;;1.11;77.05;100850.75;5035648;28;20029;-90
2021/12/25 13:11:14;;;;;;;3.72;2.10;;;;;;;1.19;76.98;100860.47;5051918;28;20039;-91